Airfield :
LOGIN :

Register | Disclaimer

   EN    FR    IT 

 










Legend :    VFR   Marginal VFR   IFR   Intensive IFR   Very Intensive IFR
Visi :
Ceiling :
>= 8 km
>= 3000ft
5 to 8 km
1000 to 3000 ft
1500m to 5 km
500 to 1000 ft
800 to 1500m
200 to 500 ft
< 800m
< 200 ft
Symbols :   Thunderstorms  Fog  Heavy snow  Heavy precipitations  Wind > 20 kt
SIGMETs :     Misc.  Thunderstorms  Icing  Turbulence  Mountain Waves  Volcanic Ashes







- Airport Elevation : 461 ft
- IATA code : WIE


ETOU - Wiesbaden Army

CURRENT METAR :
  • 220616Z 11004KT 3200 R25/1400 -DZ BR OVC006 01/00 A2979 RMK AO2A DZB16 CIG 003 RWY07 SLP097 $

EXPIRED METARs :
  • 220607Z AUTO 11003KT 3200 R25/1400 -UP BR OVC006 01/00 A2980 RMK AO2 VIS 3200V4000 UPB0559 CIG 003 RWY07 SLP101 $
  • 220556Z AUTO 10003KT 4000 BR OVC006 01/00 A2980 RMK AO2 VIS 3200 RWY07 CIG 003 RWY07 SLP101 60006 T00070001 10007 20002 57013 $
  • 220525Z AUTO 11004KT 4400 BR OVC007 01/00 A2981 RMK AO2 SLP104 $
  • 220515Z AUTO 10004KT 5000 BR OVC007 01/00 A2981 RMK AO2 CIG 006 RWY07 SLP104 $
  • 220456Z AUTO 10004KT 5000 BR OVC008 01/00 A2982 RMK AO2 CIG 005 RWY07 SLP107 P0002 T00060000 $
  • 220446Z AUTO 11004KT 6000 BR OVC008 01/00 A2982 RMK AO2 VIS 4400 RWY07 CIG 008V010 CIG 007 RWY07 SLP107 $
  • 220426Z AUTO 10004KT 6000 BR BKN006 OVC010 01/00 A2982 RMK AO2 SLP107 $
  • 220356Z AUTO 10004KT 5000 BR OVC007 01/00 A2983 RMK AO2 VIS 4000 RWY07 FZRAE07RAB07E17DZB17E45 SLP110 P0003 T00051001 $
  • 220345Z AUTO 09004KT 5000 BR OVC007 01/00 A2984 RMK AO2 VIS 4000 RWY07 FZRAE07RAB07E17DZB17E45 CIG 005 RWY07 SLP114 $
  • 220332Z AUTO 10003KT 5000 -DZ BR OVC007 00/00 A2984 RMK AO2 FZRAE07RAB07E17DZB17 CIG 005V007 CIG 005 RWY07 SLP114 $

TAF AMD TAF ETOU
Valid from the 22 at 04:00 until the 23 at 09:00 UTC


220448Z 2204/2309 18009KT 6000 -SN OVC007 620209 621105 QNH2974INS
TEMPO 2204/2207 8000 -FZRA OVC005 690002
BECMG 2206/2207 18009KT 8000 -RA OVC010 620209 621105 QNH2974INS
TEMPO 2207/2208 8000 -FZRA OVC005 690002
BECMG 2217/2218 30009KT 9999 NSW BKN020 610609 611703 QNH2992INS
BECMG 2300/2301 27009KT 9999 BKN020 610609 611703 QNH3006INS TX05/2212Z TNM01/2204Z
No reported NOTAMs for that airfield.
1 SIGMET reported for the Langen FIR (EDGG) :
 
Severe icing with freezing rain
EDGG SIGMET 7 VALID 220600/220800 EDZF
EDGG LANGEN FIR SEV ICE (FZRA) OBS E OF LINE N4845 E00940 - N5120 E00845 SFC/3000FT MOV SE WKN=



MET'MAP, your aeronautical weather chart ! - Copyright ORBIFLY December 2007 - Disclaimer

ORBIFLY MET'MAP TEAM :

Programming & Development : Alexandra Zaïnal
Concept & Development : Baudouin d'Aumeries
Co-Development & Prog : Marc-Olivier Méhu
Technical & hardware support : Manuel Goepfert

Contact : metmap@orbifly.com




SOURCES & CREDITS :

   NOAA